Time;durP1;ratioP1;P1;durP2;ratioP2;P2;SDS_P1;SDS_P2;PMS_P1;PMS_P2;Temp;Humidity;BMP_temperature;BMP_pressure;BME280_temperature;BME280_humidity;BME280_pressure;Samples;Min_cycle;Max_cycle;Signal;HPM_P1;HPM_P2
2021/01/08 00:01:53;;;;;;;10.83;8.00;;;1.70;35.40;;;;;;5094482;28;20187;-69
2021/01/08 00:04:20;;;;;;;9.70;7.23;;;1.80;35.50;;;;;;5094630;28;20188;-72
2021/01/08 00:06:45;;;;;;;11.60;9.07;;;1.80;35.70;;;;;;5094528;28;20177;-71
2021/01/08 00:09:11;;;;;;;11.07;9.30;;;1.80;36.20;;;;;;5094278;28;20317;-73
2021/01/08 00:11:36;;;;;;;9.00;8.20;;;1.80;36.00;;;;;;5094641;28;20184;-72
2021/01/08 00:14:03;;;;;;;10.63;8.90;;;1.80;35.40;;;;;;5094662;28;20161;-73
2021/01/08 00:16:33;;;;;;;18.10;8.35;;;1.90;35.50;;;;;;5094319;28;20197;-72
2021/01/08 00:18:58;;;;;;;12.15;9.18;;;1.80;35.40;;;;;;5093856;28;20212;-72
2021/01/08 00:21:24;;;;;;;8.90;7.87;;;1.80;35.40;;;;;;5076245;28;20618;-71
2021/01/08 00:23:49;;;;;;;9.53;8.57;;;1.80;35.40;;;;;;5094557;28;20181;-71
2021/01/08 00:26:22;;;;;;;13.27;10.53;;;1.80;35.40;;;;;;5094386;28;20187;-72
2021/01/08 00:28:47;;;;;;;9.45;8.45;;;1.80;35.40;;;;;;5093772;28;20693;-72
2021/01/08 00:31:13;;;;;;;11.07;9.67;;;1.80;35.40;;;;;;5094298;28;20192;-72
2021/01/08 00:33:38;;;;;;;10.67;9.13;;;1.70;35.40;;;;;;5094305;28;20177;-73
2021/01/08 00:36:04;;;;;;;11.10;10.00;;;1.70;35.40;;;;;;5094167;28;20177;-72
2021/01/08 00:38:30;;;;;;;9.90;8.90;;;1.80;35.40;;;;;;5094331;28;20288;-73
2021/01/08 00:40:55;;;;;;;9.40;8.43;;;1.70;35.40;;;;;;5075851;28;20272;-73
2021/01/08 00:43:21;;;;;;;12.53;10.30;;;1.80;35.40;;;;;;5093974;28;20179;-72
2021/01/08 00:45:49;;;;;;;10.80;9.70;;;1.80;35.40;;;;;;5093765;28;20184;-71
2021/01/08 00:48:14;;;;;;;10.77;9.68;;;1.80;35.40;;;;;;5093807;28;20511;-70
2021/01/08 00:50:40;;;;;;;10.60;8.70;;;1.80;35.50;;;;;;5093647;28;20173;-71
2021/01/08 00:53:05;;;;;;;11.23;9.03;;;1.80;35.40;;;;;;5075200;28;20173;-71
2021/01/08 00:55:31;;;;;;;9.97;8.93;;;1.80;35.40;;;;;;5094187;28;20662;-72
2021/01/08 00:57:56;;;;;;;10.47;8.90;;;1.80;35.40;;;;;;5093744;28;20544;-71
2021/01/08 01:00:22;;;;;;;11.47;9.30;;;1.80;35.40;;;;;;5093614;28;20171;-71
2021/01/08 01:02:47;;;;;;;10.07;8.50;;;1.70;35.40;;;;;;5094266;28;20197;-72
2021/01/08 01:05:13;;;;;;;12.83;9.53;;;1.70;35.80;;;;;;5093791;28;20208;-72
2021/01/08 01:07:38;;;;;;;10.90;9.13;;;1.70;35.80;;;;;;5093711;28;20173;-72
2021/01/08 01:10:05;;;;;;;11.50;8.87;;;1.70;35.80;;;;;;5075116;28;20242;-70
2021/01/08 01:12:31;;;;;;;16.75;9.68;;;1.70;35.90;;;;;;5093469;28;20197;-71
2021/01/08 01:14:56;;;;;;;10.00;8.90;;;1.70;36.10;;;;;;5093510;28;20227;-71
2021/01/08 01:17:22;;;;;;;14.83;9.40;;;1.70;36.40;;;;;;5093768;28;20535;-71
2021/01/08 01:19:47;;;;;;;10.23;9.10;;;1.70;36.30;;;;;;5093101;28;20213;-71
2021/01/08 01:22:13;;;;;;;13.43;9.90;;;1.70;36.50;;;;;;5093482;28;20209;-70
2021/01/08 01:24:38;;;;;;;10.03;8.20;;;1.70;36.80;;;;;;5093258;28;20511;-71
2021/01/08 01:27:04;;;;;;;10.03;8.57;;;1.70;36.80;;;;;;5093165;28;20191;-72
2021/01/08 01:29:30;;;;;;;9.53;8.70;;;1.70;36.50;;;;;;5092469;28;20217;-71
2021/01/08 01:31:55;;;;;;;11.40;10.27;;;1.60;36.80;;;;;;5092970;28;20197;-71
2021/01/08 01:34:21;;;;;;;16.50;9.10;;;1.60;36.80;;;;;;5093073;28;20173;-72
2021/01/08 01:36:46;;;;;;;10.03;8.90;;;1.60;37.00;;;;;;5093009;28;20533;-71
2021/01/08 01:39:13;;;;;;;9.77;8.80;;;1.60;37.30;;;;;;5092439;28;20294;-71
2021/01/08 01:41:42;;;;;;;9.15;8.27;;;1.60;37.50;;;;;;5092652;28;20654;-71
2021/01/08 01:44:08;;;;;;;10.52;9.18;;;1.70;37.40;;;;;;5092482;28;20673;-71
2021/01/08 01:46:34;;;;;;;10.70;9.20;;;1.70;37.00;;;;;;5092706;28;20173;-71
2021/01/08 01:49:00;;;;;;;10.03;9.00;;;1.70;37.40;;;;;;5092392;28;20784;-71
2021/01/08 01:51:26;;;;;;;12.77;9.57;;;1.70;37.30;;;;;;5092504;28;20674;-71
2021/01/08 01:53:52;;;;;;;12.07;10.05;;;1.70;37.10;;;;;;5092433;28;20235;-71
2021/01/08 01:56:18;;;;;;;8.85;8.02;;;1.70;37.00;;;;;;5092833;28;20611;-71
2021/01/08 01:58:44;;;;;;;10.57;9.48;;;1.70;37.10;;;;;;5092031;28;20197;-71
2021/01/08 02:01:10;;;;;;;11.37;8.47;;;1.70;37.10;;;;;;5073968;28;20181;-71
2021/01/08 02:03:44;;;;;;;12.27;8.65;;;1.70;37.50;;;;;;5091611;28;20172;-72
2021/01/08 02:06:12;;;;;;;16.83;9.40;;;1.70;37.80;;;;;;5092398;28;20177;-71
2021/01/08 02:08:44;;;;;;;9.65;8.30;;;1.70;37.80;;;;;;5073952;28;20569;-71
2021/01/08 02:11:15;;;;;;;11.65;8.77;;;1.70;38.20;;;;;;5092471;28;20195;-71
2021/01/08 02:13:55;;;;;;;13.63;9.23;;;1.70;38.20;;;;;;5092020;28;20173;-71
2021/01/08 02:16:23;;;;;;;14.98;9.98;;;1.60;38.80;;;;;;5092015;28;20198;-70
2021/01/08 02:18:53;;;;;;;13.38;9.43;;;1.60;39.10;;;;;;5091604;28;20247;-71
2021/01/08 02:21:27;;;;;;;10.85;9.68;;;1.50;39.50;;;;;;5092027;28;20185;-71
2021/01/08 02:24:32;;;;;;;13.73;10.75;;;1.50;39.70;;;;;;5092076;28;20549;-71
2021/01/08 02:27:04;;;;;;;11.50;10.23;;;1.50;39.80;;;;;;5108857;27;20732;-70
2021/01/08 02:29:31;;;;;;;12.57;9.43;;;1.50;39.80;;;;;;5108512;28;20246;-70
2021/01/08 02:31:57;;;;;;;9.68;8.82;;;1.50;40.10;;;;;;5108641;28;20413;-70
2021/01/08 02:34:24;;;;;;;11.97;8.60;;;;;;;;;;5107323;27;20544;-72
2021/01/08 02:39:30;;;;;;;11.60;10.43;;;;;;;;;;5047385;28;20798;-74
2021/01/08 02:41:56;;;;;;;14.23;9.90;;;;;;;;;;5048675;28;20175;-74
2021/01/08 02:44:23;;;;;;;8.00;7.33;;;;;;;;;;5048599;28;20185;-74
2021/01/08 02:46:49;;;;;;;8.95;8.10;;;;;;;;;;5047078;28;20493;-74
2021/01/08 02:49:15;;;;;;;8.70;7.17;;;;;;;;;;5048059;28;20713;-74
2021/01/08 02:51:41;;;;;;;12.20;8.63;;;1.40;40.20;;;;;;5048618;28;20763;-74
2021/01/08 02:54:11;;;;;;;11.82;8.90;;;1.00;39.50;;;;;;5048313;28;20433;-75
2021/01/08 02:56:44;;;;;;;16.58;10.98;;;1.00;40.20;;;;;;5048218;28;20171;-74
2021/01/08 02:59:11;;;;;;;9.82;8.68;;;0.90;40.30;;;;;;5047912;28;20206;-74
2021/01/08 03:01:37;;;;;;;10.98;8.13;;;0.90;40.80;;;;;;5030142;28;20202;-74
2021/01/08 03:04:04;;;;;;;13.60;8.93;;;0.80;40.90;;;;;;5048343;28;20181;-74
2021/01/08 03:06:30;;;;;;;8.15;7.40;;;0.80;40.80;;;;;;5030243;28;20202;-74
2021/01/08 03:09:00;;;;;;;10.15;8.65;;;0.80;40.20;;;;;;5047883;28;20190;-74
2021/01/08 03:11:26;;;;;;;7.65;6.82;;;0.70;40.60;;;;;;5047566;28;20171;-73
2021/01/08 03:13:53;;;;;;;8.38;7.57;;;0.70;40.80;;;;;;5047407;28;20182;-73
2021/01/08 03:16:19;;;;;;;7.97;7.05;;;0.70;40.90;;;;;;5047206;28;20182;-73
2021/01/08 03:18:45;;;;;;;16.17;8.82;;;0.80;40.60;;;;;;5046905;28;20202;-73
2021/01/08 03:21:11;;;;;;;8.87;6.33;;;0.80;40.30;;;;;;5029333;28;20678;-74
2021/01/08 03:23:36;;;;;;;8.47;6.70;;;0.80;40.20;;;;;;5029391;28;20197;-73
2021/01/08 03:26:02;;;;;;;9.43;7.60;;;0.80;40.00;;;;;;5046935;28;20222;-73
2021/01/08 03:28:28;;;;;;;7.90;7.10;;;0.80;40.60;;;;;;5046936;28;20201;-73
2021/01/08 03:30:53;;;;;;;7.53;6.77;;;0.90;39.80;;;;;;5046720;28;20413;-73
2021/01/08 03:33:19;;;;;;;10.40;5.97;;;0.90;39.80;;;;;;5047045;28;20174;-72
2021/01/08 03:35:44;;;;;;;7.37;6.60;;;1.00;38.60;;;;;;5047006;28;20548;-72
2021/01/08 03:38:10;;;;;;;6.00;4.77;;;1.10;38.60;;;;;;5035107;28;20215;-73
2021/01/08 03:40:41;;;;;;;10.17;7.10;;;1.00;38.40;;;;;;5033586;28;20233;-73
2021/01/08 03:43:10;;;;;;;6.93;6.32;;;1.00;38.60;;;;;;5033525;28;20196;-73
2021/01/08 03:45:37;;;;;;;8.32;5.78;;;1.00;39.00;;;;;;5033576;28;20293;-73
2021/01/08 03:48:03;;;;;;;6.22;5.63;;;1.00;39.00;;;;;;5033273;28;20222;-73
2021/01/08 03:50:29;;;;;;;6.30;5.63;;;1.10;38.90;;;;;;5033257;28;20182;-72
2021/01/08 03:52:54;;;;;;;7.13;6.43;;;1.10;38.90;;;;;;5015578;28;20179;-72
2021/01/08 03:55:20;;;;;;;7.03;5.63;;;1.10;38.70;;;;;;5033298;28;20224;-72
2021/01/08 03:57:47;;;;;;;8.40;6.13;;;1.20;39.10;;;;;;5033185;28;20561;-72
2021/01/08 04:00:13;;;;;;;7.97;7.00;;;1.20;39.40;;;;;;5032991;28;20645;-72
2021/01/08 04:02:38;;;;;;;6.13;5.63;;;1.20;39.20;;;;;;5033180;28;20218;-72
2021/01/08 04:05:04;;;;;;;9.17;7.77;;;1.20;39.50;;;;;;5015215;28;20604;-72
2021/01/08 04:07:31;;;;;;;7.43;6.13;;;1.20;39.60;;;;;;5033072;28;20348;-72
2021/01/08 04:09:57;;;;;;;7.53;6.07;;;1.20;40.00;;;;;;5032947;28;20441;-72
2021/01/08 04:12:22;;;;;;;7.40;6.37;;;1.10;40.00;;;;;;5033329;28;20218;-72
2021/01/08 04:14:48;;;;;;;7.77;6.97;;;1.10;40.00;;;;;;5015183;28;20524;-72
2021/01/08 04:17:16;;;;;;;8.27;6.30;;;1.10;40.00;;;;;;5015665;28;20204;-72
2021/01/08 04:19:42;;;;;;;6.25;5.70;;;1.10;40.00;;;;;;5033111;28;20174;-72
2021/01/08 04:22:07;;;;;;;5.80;5.20;;;1.10;39.90;;;;;;5032981;28;20167;-72
2021/01/08 04:24:33;;;;;;;6.00;5.40;;;1.10;40.20;;;;;;5032996;28;20196;-72
2021/01/08 04:26:58;;;;;;;7.20;6.33;;;1.10;39.90;;;;;;5032803;28;20214;-73
2021/01/08 04:29:24;;;;;;;6.43;5.67;;;1.10;40.00;;;;;;5032704;28;20502;-72
2021/01/08 04:31:50;;;;;;;10.13;5.20;;;1.10;40.00;;;;;;5015120;28;20651;-72
2021/01/08 04:34:15;;;;;;;6.60;5.90;;;1.10;39.50;;;;;;5032693;28;20518;-72
2021/01/08 04:36:41;;;;;;;7.47;5.67;;;1.10;39.40;;;;;;5032625;28;20175;-72
2021/01/08 04:39:06;;;;;;;6.03;5.43;;;1.00;39.80;;;;;;5014652;28;20217;-72
2021/01/08 04:41:35;;;;;;;7.50;5.83;;;1.00;39.90;;;;;;5032531;28;20255;-72
2021/01/08 04:44:01;;;;;;;7.18;6.30;;;1.10;39.90;;;;;;5032451;28;20182;-72
2021/01/08 04:46:30;;;;;;;6.40;5.80;;;1.10;39.10;;;;;;5032237;28;20295;-72
2021/01/08 04:48:59;;;;;;;8.40;5.68;;;1.10;38.80;;;;;;5031251;28;20195;-72
2021/01/08 04:51:25;;;;;;;7.63;6.10;;;1.10;38.90;;;;;;5032176;28;20175;-72
2021/01/08 04:53:51;;;;;;;7.63;6.63;;;1.10;39.30;;;;;;5032188;28;20530;-72
2021/01/08 04:56:21;;;;;;;8.82;6.30;;;1.00;39.00;;;;;;5032277;28;20198;-72
2021/01/08 04:58:47;;;;;;;6.35;5.75;;;1.10;39.30;;;;;;5014097;28;20203;-73
2021/01/08 05:01:15;;;;;;;5.43;4.68;;;1.10;38.70;;;;;;5032183;28;20184;-72
2021/01/08 05:03:40;;;;;;;6.90;5.85;;;1.20;37.70;;;;;;5014294;28;20183;-72
2021/01/08 05:06:06;;;;;;;5.97;5.37;;;1.20;37.60;;;;;;5014234;28;20661;-72
2021/01/08 05:08:32;;;;;;;5.90;5.40;;;1.20;37.80;;;;;;5032147;28;20551;-72
2021/01/08 05:10:57;;;;;;;6.40;5.80;;;1.20;37.50;;;;;;5031764;28;20551;-72
2021/01/08 05:13:33;;;;;;;8.70;6.53;;;1.20;37.60;;;;;;5014172;28;20257;-72
2021/01/08 05:16:01;;;;;;;7.50;5.93;;;1.10;37.50;;;;;;5031944;28;20171;-72
2021/01/08 05:18:30;;;;;;;7.43;6.55;;;1.10;37.90;;;;;;5031695;28;20736;-72
2021/01/08 05:20:55;;;;;;;6.97;5.97;;;1.10;37.80;;;;;;5013882;28;20191;-72
2021/01/08 05:23:21;;;;;;;7.70;6.47;;;1.10;37.60;;;;;;5031875;28;20589;-73
2021/01/08 05:25:48;;;;;;;8.75;6.50;;;1.10;37.40;;;;;;5013923;28;20671;-73
2021/01/08 05:28:18;;;;;;;6.35;4.68;;;1.10;37.20;;;;;;5031634;28;20672;-73
2021/01/08 05:30:45;;;;;;;9.13;5.97;;;1.10;37.30;;;;;;5031305;28;20717;-73
2021/01/08 05:33:14;;;;;;;6.38;5.78;;;1.20;37.30;;;;;;5032006;28;20546;-73
2021/01/08 05:35:41;;;;;;;7.53;6.20;;;1.20;37.10;;;;;;5013950;28;20245;-74
2021/01/08 05:38:07;;;;;;;6.15;4.60;;;1.20;37.00;;;;;;5013617;28;20219;-73
2021/01/08 05:40:34;;;;;;;5.93;4.47;;;1.30;36.40;;;;;;5013483;28;20178;-73
2021/01/08 05:43:03;;;;;;;6.80;6.05;;;1.30;35.70;;;;;;5013547;28;20211;-73
2021/01/08 05:45:31;;;;;;;10.35;6.28;;;1.20;36.00;;;;;;5031260;28;20672;-73
2021/01/08 05:47:58;;;;;;;5.80;5.25;;;1.20;35.70;;;;;;5031662;28;20227;-74
2021/01/08 05:50:26;;;;;;;5.40;4.70;;;1.20;35.80;;;;;;5031272;28;20179;-73
2021/01/08 05:53:02;;;;;;;5.85;4.97;;;1.20;35.90;;;;;;5031403;28;20581;-73
2021/01/08 05:55:28;;;;;;;7.05;5.53;;;1.20;35.90;;;;;;5014017;28;20189;-73
2021/01/08 05:57:54;;;;;;;7.63;6.63;;;1.20;35.60;;;;;;5013721;28;20210;-73
2021/01/08 06:00:21;;;;;;;6.82;6.13;;;1.10;35.90;;;;;;5013264;28;20182;-74
2021/01/08 06:02:52;;;;;;;9.68;6.90;;;1.20;36.30;;;;;;5013498;28;20187;-73
2021/01/08 06:05:19;;;;;;;7.30;6.32;;;1.20;36.30;;;;;;5031207;28;20222;-73
2021/01/08 06:07:49;;;;;;;6.28;5.68;;;1.20;36.00;;;;;;5031190;28;20187;-73
2021/01/08 06:10:18;;;;;;;6.78;6.18;;;1.30;35.60;;;;;;5030985;28;20204;-72
2021/01/08 06:12:45;;;;;;;8.57;6.85;;;1.30;35.00;;;;;;5031084;28;20176;-73
2021/01/08 06:15:14;;;;;;;8.40;6.60;;;1.30;35.00;;;;;;5013806;28;20175;-73
2021/01/08 06:17:44;;;;;;;7.90;6.10;;;1.30;35.00;;;;;;5031171;28;20199;-74
2021/01/08 06:20:12;;;;;;;8.90;6.63;;;1.40;35.20;;;;;;5031038;28;20233;-73
2021/01/08 06:22:39;;;;;;;8.27;7.22;;;1.40;35.10;;;;;;5031685;28;20549;-73
2021/01/08 06:25:10;;;;;;;5.68;5.18;;;1.40;35.10;;;;;;5013473;28;20714;-74
2021/01/08 06:27:37;;;;;;;7.40;6.60;;;1.40;35.80;;;;;;5013336;28;20199;-73
2021/01/08 06:30:06;;;;;;;8.27;7.03;;;1.30;35.80;;;;;;5012976;28;20233;-74
2021/01/08 06:32:33;;;;;;;10.27;6.85;;;1.30;36.30;;;;;;5031060;28;20175;-73
2021/01/08 06:35:08;;;;;;;7.82;6.82;;;1.30;36.30;;;;;;5030745;28;20536;-73
2021/01/08 06:37:39;;;;;;;9.57;7.30;;;1.30;36.70;;;;;;5030817;28;20209;-73
2021/01/08 06:40:07;;;;;;;10.40;6.93;;;1.30;36.60;;;;;;5030721;28;20168;-72
2021/01/08 06:42:42;;;;;;;8.38;6.40;;;1.40;36.40;;;;;;5031164;28;20519;-73
2021/01/08 06:45:12;;;;;;;9.18;6.90;;;1.30;36.40;;;;;;5030684;28;20581;-73
2021/01/08 06:47:43;;;;;;;8.30;7.20;;;1.40;36.50;;;;;;5030585;28;20195;-73
2021/01/08 06:50:15;;;;;;;9.73;6.70;;;1.30;36.30;;;;;;5030511;28;20229;-73
2021/01/08 06:52:47;;;;;;;6.53;5.45;;;1.40;36.10;;;;;;5031072;28;20201;-73
2021/01/08 06:55:20;;;;;;;8.02;6.85;;;1.40;35.20;;;;;;5013825;28;20553;-73
2021/01/08 06:57:53;;;;;;;10.82;7.35;;;1.30;35.10;;;;;;5031388;28;20262;-73
2021/01/08 07:00:27;;;;;;;7.47;6.72;;;1.40;35.20;;;;;;5031442;28;20258;-73
2021/01/08 07:02:57;;;;;;;7.28;6.00;;;1.40;35.10;;;;;;5031133;28;20175;-73
2021/01/08 07:05:22;;;;;;;8.68;6.57;;;1.40;35.00;;;;;;5031028;28;20191;-73
2021/01/08 07:07:49;;;;;;;6.60;6.00;;;1.40;35.00;;;;;;5031047;28;20206;-75
2021/01/08 07:10:19;;;;;;;8.52;6.03;;;1.40;34.80;;;;;;5030926;28;20171;-74
2021/01/08 07:12:44;;;;;;;6.32;5.82;;;1.40;34.40;;;;;;5033197;28;20179;-74
2021/01/08 07:15:11;;;;;;;8.60;5.93;;;1.40;34.60;;;;;;5016939;28;20210;-74
2021/01/08 07:17:38;;;;;;;7.28;5.47;;;1.40;35.10;;;;;;5034748;28;20215;-74
2021/01/08 07:20:06;;;;;;;6.00;5.45;;;1.40;34.30;;;;;;5034986;28;20258;-74
2021/01/08 07:22:40;;;;;;;6.55;5.65;;;1.40;34.60;;;;;;5034717;28;20199;-74
2021/01/08 07:25:13;;;;;;;10.38;6.80;;;1.50;33.70;;;;;;5034594;28;20184;-74
2021/01/08 07:27:43;;;;;;;6.20;5.70;;;1.40;34.00;;;;;;5034568;28;20202;-74
2021/01/08 07:30:09;;;;;;;6.32;5.70;;;1.40;34.30;;;;;;5034754;28;20171;-74
2021/01/08 07:32:53;;;;;;;6.55;5.35;;;1.50;34.40;;;;;;5034741;28;20258;-74
2021/01/08 07:35:31;;;;;;;7.50;6.70;;;1.40;33.90;;;;;;5034325;28;20182;-73
2021/01/08 07:38:14;;;;;;;7.30;5.95;;;1.50;34.40;;;;;;5033591;28;20209;-73
2021/01/08 07:40:48;;;;;;;6.05;5.40;;;1.50;34.20;;;;;;5033698;28;20539;-73
2021/01/08 07:43:16;;;;;;;5.15;4.10;;;1.50;33.80;;;;;;5033709;28;20269;-74
2021/01/08 07:45:54;;;;;;;7.95;5.70;;;1.60;34.70;;;;;;5015727;28;20252;-73
2021/01/08 07:48:25;;;;;;;5.57;5.03;;;1.60;33.60;;;;;;5033513;28;20187;-73
2021/01/08 07:50:57;;;;;;;5.80;5.20;;;1.60;33.80;;;;;;5033088;28;20190;-73
2021/01/08 07:53:41;;;;;;;5.93;5.38;;;1.60;33.60;;;;;;5015580;28;20552;-73
2021/01/08 07:56:16;;;;;;;7.35;5.72;;;1.60;33.80;;;;;;5015644;28;20186;-73
2021/01/08 07:58:44;;;;;;;6.45;5.80;;;1.70;33.90;;;;;;5015450;28;20313;-74
2021/01/08 08:01:11;;;;;;;4.65;3.95;;;1.70;34.20;;;;;;5015197;28;20215;-73
2021/01/08 08:03:38;;;;;;;6.07;4.70;;;1.70;33.90;;;;;;5015286;28;20191;-73
2021/01/08 08:06:05;;;;;;;9.68;4.97;;;1.70;34.10;;;;;;5033067;28;20211;-73
2021/01/08 08:08:31;;;;;;;6.45;5.25;;;1.70;34.40;;;;;;5033012;28;20198;-74
2021/01/08 08:11:14;;;;;;;6.72;6.13;;;1.70;34.70;;;;;;5033107;28;20544;-73
2021/01/08 08:13:40;;;;;;;6.85;5.15;;;1.70;35.10;;;;;;5033237;28;20556;-73
2021/01/08 08:16:06;;;;;;;5.97;4.32;;;1.80;35.40;;;;;;5033022;28;20261;-74
2021/01/08 08:18:32;;;;;;;8.53;6.50;;;1.80;35.40;;;;;;5033053;28;20835;-74
2021/01/08 08:21:10;;;;;;;6.55;5.95;;;1.90;35.50;;;;;;5032867;28;20468;-73
2021/01/08 08:23:37;;;;;;;6.25;5.65;;;1.90;35.20;;;;;;5015131;28;20214;-73
2021/01/08 08:26:06;;;;;;;7.70;7.00;;;2.00;35.10;;;;;;5033071;28;20192;-74
2021/01/08 08:28:31;;;;;;;6.40;5.80;;;2.00;33.90;;;;;;5014990;28;20199;-73
2021/01/08 08:30:57;;;;;;;10.03;9.03;;;2.10;33.60;;;;;;5032535;28;20539;-74
2021/01/08 08:33:23;;;;;;;7.03;5.97;;;2.10;34.00;;;;;;5033224;28;20668;-74
2021/01/08 08:35:49;;;;;;;9.52;6.15;;;2.20;33.50;;;;;;5014787;28;20175;-74
2021/01/08 08:38:15;;;;;;;6.93;6.22;;;2.30;32.90;;;;;;5047282;22;20218;-73
2021/01/08 08:40:41;;;;;;;6.33;5.47;;;2.30;32.00;;;;;;5090059;28;20185;-72
2021/01/08 08:43:07;;;;;;;6.20;5.60;;;2.30;32.00;;;;;;5090011;28;20178;-72
2021/01/08 08:45:35;;;;;;;5.75;5.22;;;2.30;32.00;;;;;;5090248;28;20209;-73
2021/01/08 08:48:05;;;;;;;7.30;5.53;;;2.30;30.70;;;;;;5073945;28;20194;-72
2021/01/08 08:50:33;;;;;;;6.40;5.53;;;2.30;31.30;;;;;;5073945;28;20243;-73
2021/01/08 08:53:09;;;;;;;7.60;6.47;;;2.40;31.50;;;;;;5071623;28;20659;-73
2021/01/08 08:55:35;;;;;;;9.45;5.90;;;2.50;30.90;;;;;;5072838;28;20259;-73
2021/01/08 08:58:10;;;;;;;6.43;5.82;;;2.60;31.00;;;;;;5075308;28;20216;-73
2021/01/08 09:00:38;;;;;;;9.20;6.53;;;2.60;30.40;;;;;;5079009;28;20170;-72
2021/01/08 09:03:21;;;;;;;7.35;5.80;;;2.70;29.90;;;;;;5075856;28;20179;-73
2021/01/08 09:05:48;;;;;;;6.68;6.05;;;2.90;29.70;;;;;;5079448;28;20269;-73
2021/01/08 09:08:36;;;;;;;5.30;4.80;;;3.10;29.20;;;;;;5082505;28;20198;-73
2021/01/08 09:11:33;;;;;;;5.80;5.22;;;3.20;28.40;;;;;;5078933;28;20193;-73
2021/01/08 09:14:08;;;;;;;5.50;4.68;;;3.20;28.20;;;;;;5078312;28;20173;-73
2021/01/08 09:16:44;;;;;;;6.30;5.32;;;3.20;28.60;;;;;;5074007;28;20172;-73
2021/01/08 09:19:20;;;;;;;5.28;4.78;;;3.30;28.20;;;;;;5078705;28;20276;-73
2021/01/08 09:21:50;;;;;;;5.43;4.32;;;3.40;28.10;;;;;;5073802;28;20178;-73
2021/01/08 09:24:26;;;;;;;10.05;8.07;;;3.40;27.60;;;;;;5076221;28;20665;-72
2021/01/08 09:27:01;;;;;;;4.60;4.20;;;3.50;28.70;;;;;;5084348;28;20211;-71
2021/01/08 09:29:29;;;;;;;4.32;3.92;;;3.50;27.60;;;;;;5088137;28;20198;-72
2021/01/08 09:31:56;;;;;;;6.22;4.97;;;3.40;27.40;;;;;;5072871;28;20517;-70
2021/01/08 09:34:23;;;;;;;6.18;5.07;;;3.40;27.50;;;;;;5072291;28;20241;-72
2021/01/08 09:36:50;;;;;;;5.40;4.90;;;3.40;28.00;;;;;;5072644;28;20177;-71
2021/01/08 09:39:15;;;;;;;12.23;6.68;;;3.30;28.10;;;;;;5072082;28;20212;-73
2021/01/08 09:41:42;;;;;;;8.80;6.53;;;3.40;28.50;;;;;;5072196;28;20648;-72
2021/01/08 09:44:12;;;;;;;5.88;5.38;;;3.60;28.10;;;;;;5072184;28;20512;-72
2021/01/08 09:46:50;;;;;;;5.40;5.00;;;3.70;27.50;;;;;;5071829;28;20336;-72
2021/01/08 09:49:16;;;;;;;4.15;3.85;;;4.00;27.10;;;;;;5071918;28;20190;-71
2021/01/08 09:51:41;;;;;;;5.50;4.23;;;4.10;26.40;;;;;;5072392;28;20180;-72
2021/01/08 09:54:07;;;;;;;6.73;5.23;;;3.90;26.70;;;;;;5088521;28;20187;-71
2021/01/08 09:56:33;;;;;;;7.63;5.30;;;4.00;26.70;;;;;;5072645;28;20182;-73
2021/01/08 09:59:13;;;;;;;6.93;4.77;;;4.00;27.30;;;;;;5075380;28;20206;-72
2021/01/08 10:01:54;;;;;;;7.15;6.25;;;4.00;27.10;;;;;;5073260;28;20268;-72
2021/01/08 10:04:30;;;;;;;5.65;5.13;;;4.10;27.00;;;;;;5074093;28;20151;-72
2021/01/08 10:07:01;;;;;;;5.05;4.65;;;4.40;26.80;;;;;;5073992;28;20206;-73
2021/01/08 10:09:27;;;;;;;5.60;5.05;;;4.50;25.80;;;;;;5073761;28;20271;-73
2021/01/08 10:12:00;;;;;;;6.13;5.53;;;4.70;25.10;;;;;;5071026;28;20622;-71
2021/01/08 10:14:30;;;;;;;10.57;4.83;;;4.70;25.60;;;;;;5072858;28;20177;-72
2021/01/08 10:17:07;;;;;;;5.80;5.18;;;4.70;25.00;;;;;;5074000;28;20410;-72
2021/01/08 10:19:33;;;;;;;6.30;5.70;;;4.70;24.80;;;;;;5071277;28;20695;-72
2021/01/08 10:22:05;;;;;;;9.87;5.93;;;4.60;25.70;;;;;;5073211;28;20264;-72
2021/01/08 10:24:30;;;;;;;6.35;5.70;;;4.60;25.70;;;;;;5088069;28;20248;-72
2021/01/08 10:26:56;;;;;;;9.40;6.00;;;4.80;25.30;;;;;;5073642;28;20283;-74
2021/01/08 10:29:39;;;;;;;6.53;5.93;;;5.10;24.30;;;;;;5074144;28;20195;-74
2021/01/08 10:32:06;;;;;;;6.70;6.00;;;5.30;23.90;;;;;;5073940;28;20415;-74
2021/01/08 10:34:36;;;;;;;6.13;5.63;;;5.40;24.00;;;;;;5073461;28;20770;-74
2021/01/08 10:37:02;;;;;;;6.30;4.50;;;5.60;23.60;;;;;;5073132;28;20773;-74
2021/01/08 10:39:27;;;;;;;6.27;5.67;;;5.70;23.40;;;;;;5071546;28;20458;-74
2021/01/08 10:41:53;;;;;;;6.80;5.60;;;5.80;22.90;;;;;;5076181;28;20598;-74
2021/01/08 10:44:18;;;;;;;5.37;4.97;;;5.80;22.20;;;;;;5088070;28;20181;-74
2021/01/08 10:46:44;;;;;;;5.13;4.73;;;5.90;22.40;;;;;;5090095;28;20212;-75
2021/01/08 10:49:10;;;;;;;7.27;6.67;;;5.80;21.90;;;;;;5078163;28;20197;-73
2021/01/08 10:51:35;;;;;;;4.70;4.30;;;5.90;22.70;;;;;;5079315;28;20174;-74
2021/01/08 10:54:01;;;;;;;6.17;5.67;;;6.00;21.90;;;;;;5078856;28;20274;-73
2021/01/08 10:56:30;;;;;;;6.20;5.63;;;6.20;21.50;;;;;;5079254;28;20209;-73
2021/01/08 10:58:56;;;;;;;5.60;5.20;;;6.40;21.10;;;;;;5078929;28;20205;-74
2021/01/08 11:01:23;;;;;;;6.83;6.23;;;6.40;21.10;;;;;;5093539;28;20432;-73
2021/01/08 11:03:48;;;;;;;5.10;4.80;;;6.20;20.90;;;;;;5075122;28;20509;-73
2021/01/08 11:06:20;;;;;;;7.23;6.50;;;5.90;21.60;;;;;;5075267;28;20549;-73
2021/01/08 11:08:46;;;;;;;5.70;5.30;;;5.60;22.00;;;;;;5075081;28;20196;-74
2021/01/08 11:11:14;;;;;;;6.10;5.63;;;5.40;22.30;;;;;;5075330;28;20497;-74
2021/01/08 11:13:40;;;;;;;5.73;5.10;;;5.30;22.90;;;;;;5090810;28;20184;-73
2021/01/08 11:16:06;;;;;;;5.87;5.37;;;5.20;23.50;;;;;;5075058;28;20455;-72
2021/01/08 11:18:32;;;;;;;5.97;5.37;;;5.20;23.00;;;;;;5074370;28;20465;-73
2021/01/08 11:20:58;;;;;;;8.07;5.23;;;5.20;23.80;;;;;;5074037;28;20518;-72
2021/01/08 11:23:23;;;;;;;5.93;5.43;;;5.10;23.10;;;;;;5080694;28;20848;-72
2021/01/08 11:25:50;;;;;;;6.30;5.80;;;4.90;23.20;;;;;;5083256;28;20212;-71
2021/01/08 11:28:16;;;;;;;8.93;6.35;;;4.80;23.20;;;;;;5079127;28;20273;-72
2021/01/08 11:30:43;;;;;;;6.37;5.87;;;4.70;24.00;;;;;;5074344;28;20184;-73
2021/01/08 11:33:08;;;;;;;7.33;6.33;;;4.60;24.00;;;;;;5089595;28;20188;-73
2021/01/08 11:35:35;;;;;;;6.70;6.10;;;4.60;24.30;;;;;;5074332;28;20479;-73
2021/01/08 11:38:00;;;;;;;6.03;5.43;;;4.60;24.10;;;;;;5074005;28;20300;-71
2021/01/08 11:40:26;;;;;;;5.30;4.80;;;4.70;24.10;;;;;;5072505;28;20262;-72
2021/01/08 11:42:51;;;;;;;8.00;7.47;;;4.60;24.00;;;;;;5093172;28;20278;-73
2021/01/08 11:45:17;;;;;;;7.20;6.50;;;4.50;24.00;;;;;;5076644;28;20213;-72
2021/01/08 11:47:43;;;;;;;7.37;6.10;;;4.50;24.50;;;;;;5074772;28;20192;-73
2021/01/08 11:50:09;;;;;;;4.97;4.60;;;4.50;24.80;;;;;;5079102;28;20711;-74
2021/01/08 11:52:34;;;;;;;6.10;5.38;;;4.60;24.00;;;;;;5082201;28;20539;-73
2021/01/08 11:55:00;;;;;;;6.03;5.50;;;4.60;24.00;;;;;;5083268;28;20171;-73
2021/01/08 11:57:26;;;;;;;6.70;6.10;;;4.60;24.60;;;;;;5097515;28;20670;-75
2021/01/08 11:59:52;;;;;;;5.72;5.25;;;4.50;24.60;;;;;;5081089;28;20180;-73
2021/01/08 12:02:18;;;;;;;5.87;5.40;;;4.60;24.40;;;;;;5082026;28;20195;-72
2021/01/08 12:04:44;;;;;;;7.07;6.37;;;4.60;23.90;;;;;;5097134;28;20440;-74
2021/01/08 12:07:09;;;;;;;5.70;5.20;;;4.60;24.10;;;;;;5080688;28;20211;-75
2021/01/08 12:09:35;;;;;;;7.10;6.50;;;4.50;23.90;;;;;;5080575;28;20194;-74
2021/01/08 12:12:05;;;;;;;5.60;5.10;;;4.50;24.20;;;;;;5079388;28;20202;-71
2021/01/08 12:14:32;;;;;;;7.78;7.15;;;4.50;23.90;;;;;;5080985;28;20656;-73
2021/01/08 12:17:08;;;;;;;5.50;5.10;;;4.50;24.00;;;;;;5096072;28;20188;-74
2021/01/08 12:19:34;;;;;;;7.90;6.53;;;4.50;24.00;;;;;;5076591;28;20199;-72
2021/01/08 12:22:00;;;;;;;5.90;5.40;;;4.40;23.90;;;;;;5075454;28;20259;-71
2021/01/08 12:24:25;;;;;;;5.10;4.70;;;4.30;24.40;;;;;;5080866;28;20198;-73
2021/01/08 12:26:52;;;;;;;4.77;4.30;;;4.30;24.30;;;;;;5079447;28;20208;-73
2021/01/08 12:29:17;;;;;;;5.50;5.00;;;4.40;23.90;;;;;;5080334;28;20689;-74
2021/01/08 12:31:43;;;;;;;5.80;5.40;;;4.40;23.80;;;;;;5082090;28;20421;-72
2021/01/08 12:34:09;;;;;;;6.07;5.57;;;4.40;24.40;;;;;;5081191;28;20643;-72
2021/01/08 12:36:35;;;;;;;7.00;5.83;;;4.40;23.90;;;;;;5080633;28;20178;-73
2021/01/08 12:39:01;;;;;;;6.67;6.17;;;4.40;23.90;;;;;;5096114;28;20417;-74
2021/01/08 12:41:29;;;;;;;5.78;5.30;;;4.50;23.30;;;;;;5081200;28;20171;-74
2021/01/08 12:43:54;;;;;;;6.07;5.63;;;4.50;23.40;;;;;;5081253;28;20167;-74
2021/01/08 12:46:20;;;;;;;6.80;4.70;;;4.50;23.50;;;;;;5081086;28;20201;-74
2021/01/08 12:48:46;;;;;;;8.17;7.33;;;4.40;23.00;;;;;;5081904;28;20200;-69
2021/01/08 12:51:13;;;;;;;5.90;5.40;;;4.50;23.70;;;;;;5083008;28;20646;-71
2021/01/08 12:53:39;;;;;;;6.05;5.55;;;4.50;22.80;;;;;;5096951;28;20184;-71
2021/01/08 12:56:05;;;;;;;5.93;5.43;;;4.50;23.30;;;;;;5081435;28;20176;-72
2021/01/08 12:58:31;;;;;;;5.93;5.43;;;4.40;26.10;;;;;;5081577;28;20226;-74
2021/01/08 13:00:57;;;;;;;5.82;4.72;;;4.40;25.30;;;;;;5080284;28;20207;-73
2021/01/08 13:03:22;;;;;;;36.90;9.83;;;4.40;26.30;;;;;;5081008;28;20661;-73